sensor_id;sensor_type;location;lat;lon;timestamp;pressure;altitude;pressure_sealevel;temperature;humidity
65760;BME280;52496;51.082;5.066;2023-11-19T00:01:17;100952.09;;;13.21;100.00
65760;BME280;52496;51.082;5.066;2023-11-19T00:03:47;100952.72;;;13.23;100.00
65760;BME280;52496;51.082;5.066;2023-11-19T00:06:18;100946.34;;;13.24;100.00
65760;BME280;52496;51.082;5.066;2023-11-19T00:08:49;100936.44;;;13.25;100.00
65760;BME280;52496;51.082;5.066;2023-11-19T00:11:20;100944.28;;;13.26;100.00
65760;BME280;52496;51.082;5.066;2023-11-19T00:13:51;100942.88;;;13.30;100.00
65760;BME280;52496;51.082;5.066;2023-11-19T00:16:21;100934.44;;;13.34;100.00
65760;BME280;52496;51.082;5.066;2023-11-19T00:18:52;100944.13;;;13.35;100.00
65760;BME280;52496;51.082;5.066;2023-11-19T00:21:22;100927.81;;;13.36;100.00
65760;BME280;52496;51.082;5.066;2023-11-19T00:23:53;100924.94;;;13.38;100.00
65760;BME280;52496;51.082;5.066;2023-11-19T00:26:23;100934.44;;;13.40;100.00
65760;BME280;52496;51.082;5.066;2023-11-19T00:28:54;100924.34;;;13.42;100.00
65760;BME280;52496;51.082;5.066;2023-11-19T00:31:26;100929.50;;;13.44;100.00
65760;BME280;52496;51.082;5.066;2023-11-19T00:33:58;100911.31;;;13.46;100.00
65760;BME280;52496;51.082;5.066;2023-11-19T00:36:28;100907.19;;;13.43;100.00
65760;BME280;52496;51.082;5.066;2023-11-19T00:38:59;100915.44;;;13.42;100.00
65760;BME280;52496;51.082;5.066;2023-11-19T00:41:29;100908.41;;;13.41;100.00
65760;BME280;52496;51.082;5.066;2023-11-19T00:44:00;100903.03;;;13.41;100.00
65760;BME280;52496;51.082;5.066;2023-11-19T00:46:30;100908.41;;;13.41;100.00
65760;BME280;52496;51.082;5.066;2023-11-19T00:49:03;100915.44;;;13.42;100.00
65760;BME280;52496;51.082;5.066;2023-11-19T00:51:33;100897.25;;;13.44;100.00
65760;BME280;52496;51.082;5.066;2023-11-19T00:54:04;100888.38;;;13.43;100.00
65760;BME280;52496;51.082;5.066;2023-11-19T00:56:35;100895.63;;;13.43;100.00
65760;BME280;52496;51.082;5.066;2023-11-19T00:59:05;100892.94;;;13.43;100.00
65760;BME280;52496;51.082;5.066;2023-11-19T01:01:36;100897.47;;;13.42;100.00
65760;BME280;52496;51.082;5.066;2023-11-19T01:04:06;100894.78;;;13.42;100.00
65760;BME280;52496;51.082;5.066;2023-11-19T01:06:37;100897.25;;;13.44;100.00
65760;BME280;52496;51.082;5.066;2023-11-19T01:09:08;100924.13;;;13.44;100.00
65760;BME280;52496;51.082;5.066;2023-11-19T01:11:39;100915.88;;;13.45;100.00
65760;BME280;52496;51.082;5.066;2023-11-19T01:14:09;100914.00;;;13.46;100.00
65760;BME280;52496;51.082;5.066;2023-11-19T01:16:40;100905.97;;;13.46;100.00
65760;BME280;52496;51.082;5.066;2023-11-19T01:19:10;100898.50;;;13.48;100.00
65760;BME280;52496;51.082;5.066;2023-11-19T01:21:41;100880.56;;;13.48;100.00
65760;BME280;52496;51.082;5.066;2023-11-19T01:24:12;100877.88;;;13.48;100.00
65760;BME280;52496;51.082;5.066;2023-11-19T01:26:44;100878.69;;;13.49;100.00
65760;BME280;52496;51.082;5.066;2023-11-19T01:29:17;100882.84;;;13.51;100.00
65760;BME280;52496;51.082;5.066;2023-11-19T01:31:47;100875.78;;;13.50;100.00
65760;BME280;52496;51.082;5.066;2023-11-19T01:34:18;100876.81;;;13.49;100.00
65760;BME280;52496;51.082;5.066;2023-11-19T01:36:48;100890.44;;;13.48;100.00
65760;BME280;52496;51.082;5.066;2023-11-19T01:39:19;100893.13;;;13.48;100.00
65760;BME280;52496;51.082;5.066;2023-11-19T01:41:51;100891.47;;;13.47;100.00
65760;BME280;52496;51.082;5.066;2023-11-19T01:44:22;100884.06;;;13.49;100.00
65760;BME280;52496;51.082;5.066;2023-11-19T01:46:52;100890.25;;;13.49;100.00
65760;BME280;52496;51.082;5.066;2023-11-19T01:49:23;100891.06;;;13.50;100.00
65760;BME280;52496;51.082;5.066;2023-11-19T01:51:54;100884.88;;;13.49;100.00
65760;BME280;52496;51.082;5.066;2023-11-19T01:54:25;100878.69;;;13.49;100.00
65760;BME280;52496;51.082;5.066;2023-11-19T01:56:56;100887.75;;;13.48;100.00
65760;BME280;52496;51.082;5.066;2023-11-19T01:59:27;100897.25;;;13.44;100.00
65760;BME280;52496;51.082;5.066;2023-11-19T02:01:58;100898.50;;;13.41;100.00
65760;BME280;52496;51.082;5.066;2023-11-19T02:04:29;100884.44;;;13.39;100.00
65760;BME280;52496;51.082;5.066;2023-11-19T02:07:00;100882.59;;;13.40;100.00
65760;BME280;52496;51.082;5.066;2023-11-19T02:09:30;100888.16;;;13.38;100.00
65760;BME280;52496;51.082;5.066;2023-11-19T02:12:01;100903.44;;;13.38;100.00
65760;BME280;52496;51.082;5.066;2023-11-19T02:14:31;100901.38;;;13.40;100.00
65760;BME280;52496;51.082;5.066;2023-11-19T02:17:02;100891.25;;;13.42;100.00
65760;BME280;52496;51.082;5.066;2023-11-19T02:19:33;100897.66;;;13.41;100.00
65760;BME280;52496;51.082;5.066;2023-11-19T02:22:03;100897.66;;;13.41;100.00
65760;BME280;52496;51.082;5.066;2023-11-19T02:24:34;100886.09;;;13.40;100.00
65760;BME280;52496;51.082;5.066;2023-11-19T02:27:11;100897.03;;;13.39;100.00
65760;BME280;52496;51.082;5.066;2023-11-19T02:29:46;100892.69;;;13.38;100.00
65760;BME280;52496;51.082;5.066;2023-11-19T02:32:17;100893.91;;;13.35;100.00
65760;BME280;52496;51.082;5.066;2023-11-19T02:34:48;100889.16;;;13.30;100.00
65760;BME280;52496;51.082;5.066;2023-11-19T02:37:18;100877.53;;;13.23;100.00
65760;BME280;52496;51.082;5.066;2023-11-19T02:39:49;100888.88;;;13.19;100.00
65760;BME280;52496;51.082;5.066;2023-11-19T02:42:20;100883.09;;;13.15;100.00
65760;BME280;52496;51.082;5.066;2023-11-19T02:44:50;100874.78;;;13.10;100.00
65760;BME280;52496;51.082;5.066;2023-11-19T02:47:21;100897.06;;;13.04;100.00
65760;BME280;52496;51.082;5.066;2023-11-19T02:49:54;100896.66;;;13.00;100.00
65760;BME280;52496;51.082;5.066;2023-11-19T02:52:24;100889.81;;;12.98;100.00
65760;BME280;52496;51.082;5.066;2023-11-19T02:54:55;100888.34;;;12.95;100.00
65760;BME280;52496;51.082;5.066;2023-11-19T02:57:31;100893.28;;;12.92;100.00
65760;BME280;52496;51.082;5.066;2023-11-19T03:00:02;100879.63;;;12.86;100.00
65760;BME280;52496;51.082;5.066;2023-11-19T03:02:43;100878.81;;;12.86;100.00
65760;BME280;52496;51.082;5.066;2023-11-19T03:05:18;100876.72;;;12.81;100.00
65760;BME280;52496;51.082;5.066;2023-11-19T03:07:50;100877.13;;;12.78;100.00
65760;BME280;52496;51.082;5.066;2023-11-19T03:10:20;100875.44;;;12.77;100.00
65760;BME280;52496;51.082;5.066;2023-11-19T03:12:51;100878.97;;;12.78;100.00
65760;BME280;52496;51.082;5.066;2023-11-19T03:15:21;100884.97;;;12.80;100.00
65760;BME280;52496;51.082;5.066;2023-11-19T03:17:52;100872.38;;;12.80;100.00
65760;BME280;52496;51.082;5.066;2023-11-19T03:20:22;100876.09;;;12.79;100.00
65760;BME280;52496;51.082;5.066;2023-11-19T03:22:54;100868.03;;;12.79;100.00
65760;BME280;52496;51.082;5.066;2023-11-19T03:25:25;100863.50;;;12.80;100.00
65760;BME280;52496;51.082;5.066;2023-11-19T03:27:57;100872.19;;;12.82;100.00
65760;BME280;52496;51.082;5.066;2023-11-19T03:30:29;100866.59;;;12.83;100.00
65760;BME280;52496;51.082;5.066;2023-11-19T03:33:00;100873.44;;;12.86;100.00
65760;BME280;52496;51.082;5.066;2023-11-19T03:35:31;100859.84;;;12.88;100.00
65760;BME280;52496;51.082;5.066;2023-11-19T03:38:03;100868.91;;;12.86;100.00
65760;BME280;52496;51.082;5.066;2023-11-19T03:40:34;100873.66;;;12.84;100.00
65760;BME280;52496;51.082;5.066;2023-11-19T03:43:04;100878.38;;;12.82;100.00
65760;BME280;52496;51.082;5.066;2023-11-19T03:45:35;100874.22;;;12.80;100.00
65760;BME280;52496;51.082;5.066;2023-11-19T03:48:06;100880.81;;;12.77;100.00
65760;BME280;52496;51.082;5.066;2023-11-19T03:50:37;100878.34;;;12.76;100.00
65760;BME280;52496;51.082;5.066;2023-11-19T03:53:07;100884.72;;;12.75;100.00
65760;BME280;52496;51.082;5.066;2023-11-19T03:55:38;100880.38;;;12.74;100.00
65760;BME280;52496;51.082;5.066;2023-11-19T03:58:08;100887.41;;;12.75;100.00
65760;BME280;52496;51.082;5.066;2023-11-19T04:00:39;100887.00;;;12.78;100.00
65760;BME280;52496;51.082;5.066;2023-11-19T04:03:11;100894.88;;;12.79;100.00
65760;BME280;52496;51.082;5.066;2023-11-19T04:05:41;100897.56;;;12.79;100.00
65760;BME280;52496;51.082;5.066;2023-11-19T04:08:12;100900.63;;;12.76;100.00
65760;BME280;52496;51.082;5.066;2023-11-19T04:10:42;100891.34;;;12.72;100.00
65760;BME280;52496;51.082;5.066;2023-11-19T04:13:13;100895.25;;;12.70;100.00
65760;BME280;52496;51.082;5.066;2023-11-19T04:15:44;100901.00;;;12.67;100.00
65760;BME280;52496;51.082;5.066;2023-11-19T04:18:14;100887.75;;;12.65;100.00
65760;BME280;52496;51.082;5.066;2023-11-19T04:20:45;100891.66;;;12.62;100.00
65760;BME280;52496;51.082;5.066;2023-11-19T04:23:19;100886.91;;;12.58;100.00
65760;BME280;52496;51.082;5.066;2023-11-19T04:25:52;100894.31;;;12.56;100.00
65760;BME280;52496;51.082;5.066;2023-11-19T04:28:23;100885.66;;;12.54;100.00
65760;BME280;52496;51.082;5.066;2023-11-19T04:30:57;100890.16;;;12.53;100.00
65760;BME280;52496;51.082;5.066;2023-11-19T04:33:27;100893.44;;;12.49;100.00
65760;BME280;52496;51.082;5.066;2023-11-19T04:35:58;100899.84;;;12.48;100.00
65760;BME280;52496;51.082;5.066;2023-11-19T04:38:28;100901.88;;;12.46;100.00
65760;BME280;52496;51.082;5.066;2023-11-19T04:40:59;100913.25;;;12.48;100.00
65760;BME280;52496;51.082;5.066;2023-11-19T04:43:30;100913.03;;;12.49;100.00
65760;BME280;52496;51.082;5.066;2023-11-19T04:46:03;100906.03;;;12.48;100.00
65760;BME280;52496;51.082;5.066;2023-11-19T04:48:34;100906.44;;;12.45;100.00
65760;BME280;52496;51.082;5.066;2023-11-19T04:51:05;100909.94;;;12.46;100.00
65760;BME280;52496;51.082;5.066;2023-11-19T04:53:36;100911.97;;;12.44;100.00
65760;BME280;52496;51.082;5.066;2023-11-19T04:56:10;100925.59;;;12.42;100.00
65760;BME280;52496;51.082;5.066;2023-11-19T04:58:40;100915.25;;;12.39;100.00
65760;BME280;52496;51.082;5.066;2023-11-19T05:01:14;100923.69;;;12.36;100.00
65760;BME280;52496;51.082;5.066;2023-11-19T05:03:46;100924.91;;;12.33;100.00
65760;BME280;52496;51.082;5.066;2023-11-19T05:06:17;100927.97;;;12.30;100.00
65760;BME280;52496;51.082;5.066;2023-11-19T05:08:47;100923.00;;;12.27;100.00
65760;BME280;52496;51.082;5.066;2023-11-19T05:11:18;100940.47;;;12.23;100.00
65760;BME280;52496;51.082;5.066;2023-11-19T05:13:50;100938.16;;;12.20;100.00
65760;BME280;52496;51.082;5.066;2023-11-19T05:16:20;100934.22;;;12.16;100.00
65760;BME280;52496;51.082;5.066;2023-11-19T05:18:51;100925.75;;;12.12;100.00
65760;BME280;52496;51.082;5.066;2023-11-19T05:21:21;100932.31;;;12.10;100.00
65760;BME280;52496;51.082;5.066;2023-11-19T05:23:52;100924.66;;;12.07;100.00
65760;BME280;52496;51.082;5.066;2023-11-19T05:26:23;100933.09;;;12.04;100.00
65760;BME280;52496;51.082;5.066;2023-11-19T05:28:54;100930.13;;;11.99;100.00
65760;BME280;52496;51.082;5.066;2023-11-19T05:31:24;100952.81;;;11.96;100.00
65760;BME280;52496;51.082;5.066;2023-11-19T05:33:55;100942.47;;;11.93;100.00
65760;BME280;52496;51.082;5.066;2023-11-19T05:36:25;100943.69;;;11.90;100.00
65760;BME280;52496;51.082;5.066;2023-11-19T05:38:56;100938.72;;;11.87;100.00
65760;BME280;52496;51.082;5.066;2023-11-19T05:41:26;100937.38;;;11.83;100.00
65760;BME280;52496;51.082;5.066;2023-11-19T05:43:57;100946.44;;;11.82;100.00
65760;BME280;52496;51.082;5.066;2023-11-19T05:46:27;100943.31;;;11.79;100.00
65760;BME280;52496;51.082;5.066;2023-11-19T05:48:57;100946.38;;;11.76;100.00
65760;BME280;52496;51.082;5.066;2023-11-19T05:51:28;100951.28;;;11.72;100.00
65760;BME280;52496;51.082;5.066;2023-11-19T05:53:58;100947.97;;;11.70;100.00
65760;BME280;52496;51.082;5.066;2023-11-19T05:56:29;100949.38;;;11.66;100.00
65760;BME280;52496;51.082;5.066;2023-11-19T05:59:02;100949.09;;;11.61;100.00
65760;BME280;52496;51.082;5.066;2023-11-19T06:01:37;100949.03;;;11.54;100.00
65760;BME280;52496;51.082;5.066;2023-11-19T06:04:08;100945.69;;;11.52;100.00
65760;BME280;52496;51.082;5.066;2023-11-19T06:06:38;100953.72;;;11.52;100.00
65760;BME280;52496;51.082;5.066;2023-11-19T06:09:10;100948.75;;;11.49;100.00
65760;BME280;52496;51.082;5.066;2023-11-19T06:11:42;100941.53;;;11.49;100.00
65760;BME280;52496;51.082;5.066;2023-11-19T06:14:14;100950.75;;;11.47;100.00
65760;BME280;52496;51.082;5.066;2023-11-19T06:16:45;100953.81;;;11.44;100.00
65760;BME280;52496;51.082;5.066;2023-11-19T06:19:15;100954.03;;;11.42;100.00
65760;BME280;52496;51.082;5.066;2023-11-19T06:21:46;100956.63;;;11.36;100.00
65760;BME280;52496;51.082;5.066;2023-11-19T06:24:17;100954.50;;;11.31;100.00
65760;BME280;52496;51.082;5.066;2023-11-19T06:26:47;100956.53;;;11.29;100.00
65760;BME280;52496;51.082;5.066;2023-11-19T06:29:18;100954.25;;;11.26;100.00
65760;BME280;52496;51.082;5.066;2023-11-19T06:31:49;100957.28;;;11.23;100.00
65760;BME280;52496;51.082;5.066;2023-11-19T06:34:20;100956.63;;;11.21;100.00
65760;BME280;52496;51.082;5.066;2023-11-19T06:36:50;100956.63;;;11.21;100.00
65760;BME280;52496;51.082;5.066;2023-11-19T06:39:21;100964.28;;;11.24;100.00
65760;BME280;52496;51.082;5.066;2023-11-19T06:41:51;100964.56;;;11.29;100.00
65760;BME280;52496;51.082;5.066;2023-11-19T06:44:22;100972.03;;;11.34;100.00
65760;BME280;52496;51.082;5.066;2023-11-19T06:46:52;100960.78;;;11.38;100.00
65760;BME280;52496;51.082;5.066;2023-11-19T06:49:23;100958.56;;;11.42;100.00
65760;BME280;52496;51.082;5.066;2023-11-19T06:51:54;100953.00;;;11.43;100.00
65760;BME280;52496;51.082;5.066;2023-11-19T06:54:25;100952.00;;;11.44;100.00
65760;BME280;52496;51.082;5.066;2023-11-19T06:56:55;100955.06;;;11.41;100.00
65760;BME280;52496;51.082;5.066;2023-11-19T06:59:27;100963.25;;;11.40;100.00
65760;BME280;52496;51.082;5.066;2023-11-19T07:01:57;100963.84;;;11.35;100.00
65760;BME280;52496;51.082;5.066;2023-11-19T07:04:27;100961.53;;;11.32;100.00
65760;BME280;52496;51.082;5.066;2023-11-19T07:06:58;100961.69;;;11.31;100.00
65760;BME280;52496;51.082;5.066;2023-11-19T07:09:29;100960.22;;;11.28;100.00
65760;BME280;52496;51.082;5.066;2023-11-19T07:12:00;100954.25;;;11.26;100.00
65760;BME280;52496;51.082;5.066;2023-11-19T07:14:32;100968.81;;;11.23;100.00
65760;BME280;52496;51.082;5.066;2023-11-19T07:17:03;100973.34;;;11.23;100.00
65760;BME280;52496;51.082;5.066;2023-11-19T07:19:34;100976.19;;;11.21;100.00
65760;BME280;52496;51.082;5.066;2023-11-19T07:22:06;100973.34;;;11.23;100.00
65760;BME280;52496;51.082;5.066;2023-11-19T07:24:39;100968.81;;;11.23;100.00
65760;BME280;52496;51.082;5.066;2023-11-19T07:27:10;100979.69;;;11.22;100.00
65760;BME280;52496;51.082;5.066;2023-11-19T07:29:42;100985.34;;;11.27;100.00
65760;BME280;52496;51.082;5.066;2023-11-19T07:32:13;100984.16;;;11.30;100.00
65760;BME280;52496;51.082;5.066;2023-11-19T07:34:45;100985.63;;;11.32;100.00
65760;BME280;52496;51.082;5.066;2023-11-19T07:37:15;100972.22;;;11.32;100.00
65760;BME280;52496;51.082;5.066;2023-11-19T07:39:47;100982.09;;;11.32;100.00
65760;BME280;52496;51.082;5.066;2023-11-19T07:42:17;100978.41;;;11.33;100.00
65760;BME280;52496;51.082;5.066;2023-11-19T07:44:48;100978.88;;;11.36;100.00
65760;BME280;52496;51.082;5.066;2023-11-19T07:47:18;100978.50;;;11.39;100.00
65760;BME280;52496;51.082;5.066;2023-11-19T07:49:50;100978.28;;;11.41;100.00
65760;BME280;52496;51.082;5.066;2023-11-19T07:52:21;100984.50;;;11.41;100.00
65760;BME280;52496;51.082;5.066;2023-11-19T07:54:52;100982.44;;;11.43;100.00
65760;BME280;52496;51.082;5.066;2023-11-19T07:57:22;100989.75;;;11.49;100.00
65760;BME280;52496;51.082;5.066;2023-11-19T07:59:54;100993.91;;;11.52;100.00
65760;BME280;52496;51.082;5.066;2023-11-19T08:02:24;100991.28;;;11.59;100.00
65760;BME280;52496;51.082;5.066;2023-11-19T08:04:55;100991.38;;;11.65;100.00
65760;BME280;52496;51.082;5.066;2023-11-19T08:07:26;100995.34;;;11.69;100.00
65760;BME280;52496;51.082;5.066;2023-11-19T08:09:57;100994.16;;;11.72;100.00
65760;BME280;52496;51.082;5.066;2023-11-19T08:12:27;101000.13;;;11.74;100.00
65760;BME280;52496;51.082;5.066;2023-11-19T08:14:57;101000.78;;;11.76;100.00
65760;BME280;52496;51.082;5.066;2023-11-19T08:17:28;100997.94;;;11.78;100.00
65760;BME280;52496;51.082;5.066;2023-11-19T08:19:59;101007.41;;;11.80;100.00
65760;BME280;52496;51.082;5.066;2023-11-19T08:22:30;100996.69;;;11.80;100.00
65760;BME280;52496;51.082;5.066;2023-11-19T08:25:01;101008.06;;;11.82;100.00
65760;BME280;52496;51.082;5.066;2023-11-19T08:27:34;100997.19;;;11.84;100.00
65760;BME280;52496;51.082;5.066;2023-11-19T08:30:06;101000.56;;;11.92;100.00
65760;BME280;52496;51.082;5.066;2023-11-19T08:32:37;101006.84;;;12.00;100.00
65760;BME280;52496;51.082;5.066;2023-11-19T08:35:07;100997.25;;;12.05;100.00
65760;BME280;52496;51.082;5.066;2023-11-19T08:37:38;100998.50;;;12.09;100.00
65760;BME280;52496;51.082;5.066;2023-11-19T08:40:09;100995.63;;;12.11;100.00
65760;BME280;52496;51.082;5.066;2023-11-19T08:42:40;101000.22;;;12.17;100.00
65760;BME280;52496;51.082;5.066;2023-11-19T08:45:11;100995.13;;;12.22;100.00
65760;BME280;52496;51.082;5.066;2023-11-19T08:47:41;100990.19;;;12.26;100.00
65760;BME280;52496;51.082;5.066;2023-11-19T08:50:12;100987.97;;;12.29;100.00
65760;BME280;52496;51.082;5.066;2023-11-19T08:52:42;101002.28;;;12.36;100.00
65760;BME280;52496;51.082;5.066;2023-11-19T08:55:13;101011.84;;;12.46;100.00
65760;BME280;52496;51.082;5.066;2023-11-19T08:57:43;101004.13;;;12.57;100.00
65760;BME280;52496;51.082;5.066;2023-11-19T09:00:16;100999.25;;;12.68;100.00
65760;BME280;52496;51.082;5.066;2023-11-19T09:02:48;101006.94;;;12.77;100.00
65760;BME280;52496;51.082;5.066;2023-11-19T09:05:19;101014.22;;;12.83;100.00
65760;BME280;52496;51.082;5.066;2023-11-19T09:07:50;101017.16;;;12.89;100.00
65760;BME280;52496;51.082;5.066;2023-11-19T09:10:20;101005.59;;;12.88;100.00
65760;BME280;52496;51.082;5.066;2023-11-19T09:12:51;100989.50;;;12.88;100.00
65760;BME280;52496;51.082;5.066;2023-11-19T09:15:21;101003.34;;;12.92;100.00
65760;BME280;52496;51.082;5.066;2023-11-19T09:17:52;101005.25;;;12.98;100.00
65760;BME280;52496;51.082;5.066;2023-11-19T09:20:23;101006.75;;;13.07;100.00
65760;BME280;52496;51.082;5.066;2023-11-19T09:22:53;101004.13;;;13.20;100.00
65760;BME280;52496;51.082;5.066;2023-11-19T09:25:24;101004.25;;;13.34;100.00
65760;BME280;52496;51.082;5.066;2023-11-19T09:27:54;101006.75;;;13.42;100.00
65760;BME280;52496;51.082;5.066;2023-11-19T09:30:25;100997.91;;;13.48;100.00
65760;BME280;52496;51.082;5.066;2023-11-19T09:32:55;100990.47;;;13.50;100.00
65760;BME280;52496;51.082;5.066;2023-11-19T09:35:26;100993.56;;;13.47;100.00
65760;BME280;52496;51.082;5.066;2023-11-19T09:37:57;100988.63;;;13.50;100.00
65760;BME280;52496;51.082;5.066;2023-11-19T09:40:27;101007.25;;;13.52;100.00
65760;BME280;52496;51.082;5.066;2023-11-19T09:42:59;100991.72;;;13.54;100.00
65760;BME280;52496;51.082;5.066;2023-11-19T09:45:32;100996.53;;;13.59;100.00
65760;BME280;52496;51.082;5.066;2023-11-19T09:48:11;100988.25;;;13.60;100.00
65760;BME280;52496;51.082;5.066;2023-11-19T09:50:42;101006.66;;;13.63;100.00
65760;BME280;52496;51.082;5.066;2023-11-19T09:53:16;100996.53;;;13.65;100.00
65760;BME280;52496;51.082;5.066;2023-11-19T09:55:47;101011.44;;;13.68;100.00
65760;BME280;52496;51.082;5.066;2023-11-19T09:58:18;101010.22;;;13.70;100.00
65760;BME280;52496;51.082;5.066;2023-11-19T10:00:49;100994.91;;;13.71;100.00
65760;BME280;52496;51.082;5.066;2023-11-19T10:03:22;101000.72;;;13.74;100.00
65760;BME280;52496;51.082;5.066;2023-11-19T10:05:54;101000.31;;;13.77;100.00
65760;BME280;52496;51.082;5.066;2023-11-19T10:08:25;100991.03;;;13.87;100.00
65760;BME280;52496;51.082;5.066;2023-11-19T10:10:56;100992.31;;;13.91;100.00
65760;BME280;52496;51.082;5.066;2023-11-19T10:13:28;100994.13;;;13.84;100.00
65760;BME280;52496;51.082;5.066;2023-11-19T10:15:58;100972.63;;;13.84;100.00
65760;BME280;52496;51.082;5.066;2023-11-19T10:18:29;100980.69;;;13.84;100.00
65760;BME280;52496;51.082;5.066;2023-11-19T10:21:00;100978.00;;;13.84;100.00
65760;BME280;52496;51.082;5.066;2023-11-19T10:23:31;100979.28;;;13.94;100.00
65760;BME280;52496;51.082;5.066;2023-11-19T10:26:03;100973.72;;;14.09;100.00
65760;BME280;52496;51.082;5.066;2023-11-19T10:28:40;100976.19;;;14.17;100.00
65760;BME280;52496;51.082;5.066;2023-11-19T10:31:17;100974.16;;;14.19;100.00
65760;BME280;52496;51.082;5.066;2023-11-19T10:33:48;100971.88;;;14.16;100.00
65760;BME280;52496;51.082;5.066;2023-11-19T10:36:18;100988.81;;;14.10;100.00
65760;BME280;52496;51.082;5.066;2023-11-19T10:38:53;100991.50;;;13.97;100.00
65760;BME280;52496;51.082;5.066;2023-11-19T10:41:31;100997.84;;;13.83;100.00
65760;BME280;52496;51.082;5.066;2023-11-19T10:44:01;100990.44;;;13.85;100.00
65760;BME280;52496;51.082;5.066;2023-11-19T10:46:50;101002.84;;;13.99;100.00
65760;BME280;52496;51.082;5.066;2023-11-19T10:49:20;101011.81;;;14.19;100.00
65760;BME280;52496;51.082;5.066;2023-11-19T10:51:52;101003.13;;;14.37;100.00
65760;BME280;52496;51.082;5.066;2023-11-19T10:54:24;100992.59;;;14.49;100.00
65760;BME280;52496;51.082;5.066;2023-11-19T10:56:58;100997.59;;;14.52;100.00
65760;BME280;52496;51.082;5.066;2023-11-19T10:59:31;100994.91;;;14.52;100.00
65760;BME280;52496;51.082;5.066;2023-11-19T11:02:04;100990.72;;;14.43;100.00
65760;BME280;52496;51.082;5.066;2023-11-19T11:04:40;100982.22;;;14.33;100.00
65760;BME280;52496;51.082;5.066;2023-11-19T11:07:12;101004.16;;;14.23;100.00
65760;BME280;52496;51.082;5.066;2023-11-19T11:09:45;100990.06;;;14.14;100.00
65760;BME280;52496;51.082;5.066;2023-11-19T11:12:17;101010.75;;;14.07;100.00
65760;BME280;52496;51.082;5.066;2023-11-19T11:14:53;100978.44;;;13.94;100.00
65760;BME280;52496;51.082;5.066;2023-11-19T11:17:26;100993.91;;;13.79;100.00
65760;BME280;52496;51.082;5.066;2023-11-19T11:19:58;100984.97;;;13.65;100.00
65760;BME280;52496;51.082;5.066;2023-11-19T11:22:34;100979.56;;;13.58;100.00
65760;BME280;52496;51.082;5.066;2023-11-19T11:25:22;100972.34;;;13.59;100.00
65760;BME280;52496;51.082;5.066;2023-11-19T11:28:05;100970.50;;;13.72;100.00
65760;BME280;52496;51.082;5.066;2023-11-19T11:30:55;100981.09;;;13.81;100.00
65760;BME280;52496;51.082;5.066;2023-11-19T11:33:37;100971.38;;;13.86;100.00
65760;BME280;52496;51.082;5.066;2023-11-19T11:36:20;100965.59;;;13.89;100.00
65760;BME280;52496;51.082;5.066;2023-11-19T11:38:51;100963.97;;;13.95;100.00
65760;BME280;52496;51.082;5.066;2023-11-19T11:41:24;100962.75;;;14.04;100.00
65760;BME280;52496;51.082;5.066;2023-11-19T11:43:56;100959.41;;;14.02;100.00
65760;BME280;52496;51.082;5.066;2023-11-19T11:49:07;100944.09;;;13.96;100.00
65760;BME280;52496;51.082;5.066;2023-11-19T11:57:06;100940.41;;;13.97;100.00
65760;BME280;52496;51.082;5.066;2023-11-19T12:02:10;100933.81;;;14.06;100.00
65760;BME280;52496;51.082;5.066;2023-11-19T12:04:40;100926.16;;;14.16;100.00
65760;BME280;52496;51.082;5.066;2023-11-19T12:07:21;100917.25;;;14.22;100.00
65760;BME280;52496;51.082;5.066;2023-11-19T12:10:05;100919.13;;;14.29;100.00
65760;BME280;52496;51.082;5.066;2023-11-19T12:12:37;100927.19;;;14.35;100.00
65760;BME280;52496;51.082;5.066;2023-11-19T12:15:10;100919.75;;;14.37;100.00
65760;BME280;52496;51.082;5.066;2023-11-19T12:17:43;100926.75;;;14.38;100.00
65760;BME280;52496;51.082;5.066;2023-11-19T12:20:23;100921.84;;;14.55;100.00
65760;BME280;52496;51.082;5.066;2023-11-19T12:22:54;100911.00;;;14.82;100.00
65760;BME280;52496;51.082;5.066;2023-11-19T12:25:25;100922.78;;;14.94;100.00
65760;BME280;52496;51.082;5.066;2023-11-19T12:27:56;100933.78;;;14.86;100.00
65760;BME280;52496;51.082;5.066;2023-11-19T12:30:27;100922.44;;;14.71;100.00
65760;BME280;52496;51.082;5.066;2023-11-19T12:32:59;100926.59;;;14.53;100.00
65760;BME280;52496;51.082;5.066;2023-11-19T12:35:30;100936.69;;;14.38;100.00
65760;BME280;52496;51.082;5.066;2023-11-19T12:38:00;100932.97;;;14.26;100.00
65760;BME280;52496;51.082;5.066;2023-11-19T12:40:31;100939.38;;;14.11;100.00
65760;BME280;52496;51.082;5.066;2023-11-19T12:43:02;100933.34;;;13.96;100.00
65760;BME280;52496;51.082;5.066;2023-11-19T12:45:36;100946.78;;;13.76;100.00
65760;BME280;52496;51.082;5.066;2023-11-19T12:48:08;100931.22;;;13.58;100.00
65760;BME280;52496;51.082;5.066;2023-11-19T12:50:55;100928.47;;;13.45;100.00
65760;BME280;52496;51.082;5.066;2023-11-19T12:53:50;100917.28;;;13.35;100.00
65760;BME280;52496;51.082;5.066;2023-11-19T12:56:21;100905.69;;;13.27;100.00
65760;BME280;52496;51.082;5.066;2023-11-19T12:58:52;100912.00;;;13.20;100.00
65760;BME280;52496;51.082;5.066;2023-11-19T13:01:23;100904.97;;;13.12;100.00
65760;BME280;52496;51.082;5.066;2023-11-19T13:03:53;100896.03;;;13.05;100.00
65760;BME280;52496;51.082;5.066;2023-11-19T13:06:24;100896.66;;;13.00;100.00
65760;BME280;52496;51.082;5.066;2023-11-19T13:08:55;100921.38;;;12.96;100.00
65760;BME280;52496;51.082;5.066;2023-11-19T13:11:33;100902.41;;;12.97;100.00
65760;BME280;52496;51.082;5.066;2023-11-19T13:14:04;100917.31;;;13.06;100.00